Time;durP1;ratioP1;P1;durP2;ratioP2;P2;SDS_P1;SDS_P2;PMS_P1;PMS_P2;Temp;Humidity;BMP_temperature;BMP_pressure;BME280_temperature;BME280_humidity;BME280_pressure;Samples;Min_cycle;Max_cycle;Signal;HPM_P1;HPM_P2
2023/05/10 00:00:28;;;;;;;13.83;5.13;;;;;;;42.68;35.21;100923.41;5031683;28;20436;-84
2023/05/10 00:02:54;;;;;;;16.57;4.37;;;;;;;42.72;34.88;100921.56;5031201;28;20539;-84
2023/05/10 00:05:20;;;;;;;11.33;3.43;;;;;;;42.68;34.86;100912.47;5031476;28;20947;-83
2023/05/10 00:07:46;;;;;;;11.40;4.40;;;;;;;42.69;35.29;100916.81;5030747;28;20231;-82
2023/05/10 00:10:12;;;;;;;12.03;3.10;;;;;;;42.70;34.70;100926.56;5031312;28;20423;-82
2023/05/10 00:12:38;;;;;;;9.13;2.80;;;;;;;42.54;35.18;100912.78;5031047;28;20718;-83
2023/05/10 00:15:05;;;;;;;12.13;3.60;;;;;;;42.62;34.93;100906.44;5030891;28;21055;-82
2023/05/10 00:17:31;;;;;;;10.77;3.60;;;;;;;42.55;34.54;100895.25;5030296;28;20482;-82
2023/05/10 00:19:57;;;;;;;14.40;4.23;;;;;;;42.58;35.19;100882.91;5030614;28;20459;-83
2023/05/10 00:22:23;;;;;;;10.60;3.27;;;;;;;42.49;34.76;100884.91;5030879;28;20719;-83
2023/05/10 00:24:49;;;;;;;11.20;3.87;;;;;;;42.54;34.82;100893.69;5030923;28;20201;-82
2023/05/10 00:27:15;;;;;;;9.80;3.80;;;;;;;42.54;34.80;100888.22;5030846;28;20619;-82
2023/05/10 00:29:41;;;;;;;11.27;4.60;;;;;;;42.45;35.40;100876.59;5031044;28;20478;-82
2023/05/10 00:32:07;;;;;;;10.67;3.47;;;;;;;42.35;35.61;100871.56;5030363;28;20722;-83
2023/05/10 00:34:33;;;;;;;12.73;4.13;;;;;;;42.28;35.28;100871.31;5030857;28;20267;-83
2023/05/10 00:36:58;;;;;;;13.47;3.20;;;;;;;42.36;35.60;100868.53;5030631;28;20665;-83
2023/05/10 00:39:26;;;;;;;10.80;3.67;;;;;;;42.47;35.32;100873.53;5030520;28;20426;-84
2023/05/10 00:41:52;;;;;;;13.47;3.93;;;;;;;42.32;35.85;100858.63;5017649;28;20201;-82
2023/05/10 00:44:18;;;;;;;10.20;3.10;;;;;;;42.32;35.79;100858.63;5030375;28;20477;-82
2023/05/10 00:46:45;;;;;;;10.97;3.60;;;;;;;42.12;36.21;100831.06;5030779;28;20427;-83
2023/05/10 00:49:11;;;;;;;8.17;3.50;;;;;;;42.18;35.93;100856.22;5030320;28;20960;-83
2023/05/10 00:51:37;;;;;;;14.30;4.67;;;;;;;42.29;35.83;100862.81;5031584;28;20510;-82
2023/05/10 00:54:03;;;;;;;10.00;3.40;;;;;;;42.37;35.63;100845.56;5030834;28;20780;-82
2023/05/10 00:56:29;;;;;;;10.93;4.10;;;;;;;42.13;35.94;100853.66;5030185;28;20517;-82
2023/05/10 00:58:56;;;;;;;15.80;4.20;;;;;;;42.27;35.84;100854.16;5030469;28;20494;-82
2023/05/10 01:01:22;;;;;;;14.40;3.50;;;;;;;42.20;35.78;100839.50;5031593;28;20451;-83
2023/05/10 01:03:48;;;;;;;10.10;3.63;;;;;;;42.30;35.74;100839.88;5030664;28;20819;-82
2023/05/10 01:06:14;;;;;;;18.20;5.07;;;;;;;42.14;36.25;100834.22;5024738;28;20467;-82
2023/05/10 01:08:40;;;;;;;11.93;3.83;;;;;;;42.15;36.15;100835.03;5030680;28;20582;-82
2023/05/10 01:11:06;;;;;;;13.13;3.30;;;;;;;42.24;35.58;100833.06;5030105;28;20934;-82
2023/05/10 01:13:42;;;;;;;11.80;4.47;;;;;;;42.18;36.26;100826.22;5030566;28;20435;-82
2023/05/10 01:16:08;;;;;;;14.80;3.93;;;;;;;42.21;36.30;100833.72;5030027;28;20462;-82
2023/05/10 01:18:40;;;;;;;11.63;3.03;;;;;;;42.25;35.74;100831.13;5021821;28;20443;-84
2023/05/10 01:21:28;;;;;;;7.77;2.80;;;;;;;42.16;35.65;100828.47;5029488;28;20462;-84
2023/05/10 01:24:23;;;;;;;14.10;3.77;;;;;;;42.37;35.64;100818.31;5030135;28;20893;-84
2023/05/10 01:27:04;;;;;;;12.27;4.50;;;;;;;42.15;35.83;100826.84;5030663;28;20419;-84
2023/05/10 01:30:21;;;;;;;12.43;5.03;;;;;;;42.09;35.83;100822.75;5015542;28;20413;-84
2023/05/10 01:33:21;;;;;;;8.67;3.23;;;;;;;42.07;35.95;100823.09;5006126;28;20408;-82
2023/05/10 01:35:50;;;;;;;12.13;2.87;;;;;;;41.96;36.18;100816.47;5004125;28;20424;-83
2023/05/10 01:38:30;;;;;;;8.00;2.63;;;;;;;42.01;35.95;100818.97;5028471;28;20447;-83
2023/05/10 01:41:12;;;;;;;10.67;4.60;;;;;;;41.92;36.81;100818.25;5019155;28;20943;-82
2023/05/10 01:43:54;;;;;;;12.97;4.30;;;;;;;42.11;36.81;100818.56;5029993;28;20446;-84
2023/05/10 01:46:28;;;;;;;10.97;4.33;;;;;;;42.07;36.57;100825.03;5031706;28;20465;-84
2023/05/10 01:48:58;;;;;;;11.90;3.27;;;;;;;42.07;36.35;100814.13;5018297;28;20473;-84
2023/05/10 01:51:26;;;;;;;12.83;4.70;;;;;;;42.12;36.56;100817.44;5029703;28;20490;-84
2023/05/10 01:53:58;;;;;;;15.73;5.47;;;;;;;42.07;36.68;100814.91;5031927;28;20502;-84
2023/05/10 01:56:28;;;;;;;9.40;3.70;;;;;;;42.21;36.48;100809.19;5033034;28;20424;-84
2023/05/10 01:58:56;;;;;;;14.70;4.07;;;;;;;42.25;36.54;100807.38;5033363;28;20420;-84
2023/05/10 02:01:23;;;;;;;10.40;3.70;;;;;;;42.04;36.70;100820.22;5032660;28;20995;-84
2023/05/10 02:03:51;;;;;;;11.37;3.87;;;;;;;42.07;36.51;100814.91;5033731;28;20460;-84
2023/05/10 02:06:20;;;;;;;15.30;3.90;;;;;;;42.22;36.26;100804.53;5031514;28;20429;-84
2023/05/10 02:08:47;;;;;;;13.13;5.30;;;;;;;42.16;36.43;100805.84;5033400;28;20790;-83
2023/05/10 02:11:14;;;;;;;25.20;5.17;;;;;;;42.21;36.31;100803.72;5033469;28;20415;-82
2023/05/10 02:13:42;;;;;;;10.93;5.33;;;;;;;42.16;36.56;100797.66;5033565;28;20420;-83
2023/05/10 02:16:08;;;;;;;10.20;3.50;;;;;;;42.08;36.30;100796.63;5033080;28;20416;-83
2023/05/10 02:18:36;;;;;;;9.33;3.40;;;;;;;42.06;36.50;100807.09;5033054;28;20420;-84
2023/05/10 02:21:03;;;;;;;9.07;3.57;;;;;;;42.14;36.29;100809.69;5033004;28;20542;-84
2023/05/10 02:23:30;;;;;;;11.10;3.13;;;;;;;42.28;36.57;100805.91;5033240;28;20419;-84
2023/05/10 02:26:00;;;;;;;12.90;4.27;;;;;;;42.19;36.67;100808.72;5032591;28;20423;-84
2023/05/10 02:28:27;;;;;;;11.67;3.87;;;;;;;42.32;36.54;100801.38;5032740;28;20473;-84
2023/05/10 02:30:54;;;;;;;10.77;4.40;;;;;;;42.28;36.50;100809.41;5033059;28;20440;-84
2023/05/10 02:33:22;;;;;;;14.00;4.80;;;;;;;42.30;36.17;100807.16;5032677;28;20443;-85
2023/05/10 02:35:49;;;;;;;14.77;5.90;;;;;;;42.23;36.18;100808.84;5032770;28;20419;-85
2023/05/10 02:38:17;;;;;;;17.23;5.33;;;;;;;42.30;35.95;100803.66;5032871;28;20430;-84
2023/05/10 02:40:43;;;;;;;11.30;5.03;;;;;;;42.27;36.17;100794.19;5032478;28;20444;-85
2023/05/10 02:43:14;;;;;;;13.23;4.57;;;;;;;42.09;36.14;100790.03;5032556;28;20455;-85
2023/05/10 02:45:42;;;;;;;12.60;4.03;;;;;;;42.12;36.23;100795.63;5032577;28;20424;-84
2023/05/10 02:48:08;;;;;;;11.27;4.30;;;;;;;42.04;36.38;100798.44;5032831;28;20432;-84
2023/05/10 02:50:36;;;;;;;16.70;4.57;;;;;;;42.12;36.02;100786.66;5032638;28;20447;-84
2023/05/10 02:53:11;;;;;;;10.50;4.10;;;;;;;42.00;36.38;100802.97;5033931;28;20982;-83
2023/05/10 02:55:41;;;;;;;11.10;3.33;;;;;;;42.13;36.46;100797.22;5032297;28;20446;-84
2023/05/10 02:58:06;;;;;;;9.57;3.17;;;;;;;42.17;36.28;100797.34;5032134;28;20497;-84
2023/05/10 03:00:32;;;;;;;12.07;4.63;;;;;;;41.95;36.67;100803.19;5032538;28;20456;-84
2023/05/10 03:02:58;;;;;;;16.63;5.07;;;;;;;42.19;36.76;100795.09;5032411;28;20514;-84
2023/05/10 03:05:25;;;;;;;10.50;4.60;;;;;;;42.19;36.98;100800.56;5031893;28;20451;-84
2023/05/10 03:07:52;;;;;;;14.03;4.47;;;;;;;42.21;36.91;100798.28;5031920;28;21026;-84
2023/05/10 03:10:19;;;;;;;12.53;5.67;;;;;;;42.01;37.29;100799.91;5032268;28;20826;-84
2023/05/10 03:13:13;;;;;;;9.37;4.97;;;;;;;42.19;36.77;100803.28;5032051;28;20469;-84
2023/05/10 03:15:57;;;;;;;8.20;3.10;;;;;;;42.25;36.75;100812.84;5024129;28;20408;-84
2023/05/10 03:18:37;;;;;;;11.60;3.43;;;;;;;41.97;37.01;100809.09;5032170;28;20427;-84
2023/05/10 03:21:08;;;;;;;11.53;3.80;;;;;;;41.89;36.94;100797.16;5031783;28;20416;-84
2023/05/10 03:23:41;;;;;;;13.17;3.53;;;;;;;42.07;37.02;100793.09;5033208;28;20967;-84
2023/05/10 03:26:08;;;;;;;12.13;3.47;;;;;;;42.09;37.23;100795.50;5031813;28;20530;-84
2023/05/10 03:28:35;;;;;;;9.97;3.50;;;;;;;42.16;37.10;100801.22;5031863;28;20932;-86
2023/05/10 03:31:05;;;;;;;11.13;4.00;;;;;;;41.98;37.23;100791.59;5032030;28;20440;-84
2023/05/10 03:33:31;;;;;;;14.20;5.83;;;;;;;41.95;36.96;100782.19;5031723;28;20466;-84
2023/05/10 03:35:57;;;;;;;10.47;3.40;;;;;;;41.96;37.19;100791.16;5032083;28;20427;-84
2023/05/10 03:38:23;;;;;;;18.03;4.47;;;;;;;42.13;36.77;100785.50;5031665;28;20597;-84
2023/05/10 03:40:49;;;;;;;16.63;5.47;;;;;;;42.09;36.98;100787.31;5031744;28;20184;-84
2023/05/10 03:43:15;;;;;;;9.50;4.03;;;;;;;42.18;36.72;100798.16;5030941;28;20430;-84
2023/05/10 03:45:41;;;;;;;14.20;4.63;;;;;;;41.92;36.87;100787.50;5031735;28;20231;-84
2023/05/10 03:48:07;;;;;;;12.63;3.70;;;;;;;41.94;36.86;100785.25;5031390;28;20184;-84
2023/05/10 03:50:33;;;;;;;10.27;3.40;;;;;;;41.86;36.93;100778.72;5031708;28;20720;-84
2023/05/10 03:52:58;;;;;;;18.57;4.13;;;;;;;41.92;36.63;100788.28;5031477;28;20939;-83
2023/05/10 03:55:24;;;;;;;12.27;3.37;;;;;;;41.93;37.03;100772.72;5030998;28;20291;-84
2023/05/10 03:57:50;;;;;;;11.77;5.43;;;;;;;42.03;36.97;100780.47;5031345;28;20424;-84
2023/05/10 04:00:17;;;;;;;20.23;5.47;;;;;;;41.95;37.06;100784.09;5031498;28;20432;-84
2023/05/10 04:02:43;;;;;;;10.23;3.40;;;;;;;41.91;37.08;100777.72;5030829;28;20474;-84
2023/05/10 04:05:09;;;;;;;11.50;3.87;;;;;;;41.78;37.25;100774.97;5031149;28;20420;-84
2023/05/10 04:07:35;;;;;;;12.93;4.37;;;;;;;41.84;37.63;100783.72;5029958;28;20544;-84
2023/05/10 04:10:01;;;;;;;9.70;3.40;;;;;;;42.09;37.24;100782.66;5031125;28;20455;-84
2023/05/10 04:12:27;;;;;;;13.13;3.20;;;;;;;42.05;36.87;100770.03;5030555;28;20709;-84
2023/05/10 04:14:52;;;;;;;12.60;4.77;;;;;;;42.05;36.64;100775.50;5031055;28;20807;-85
2023/05/10 04:17:18;;;;;;;14.30;3.70;;;;;;;42.09;37.06;100771.75;5030157;28;20444;-84
2023/05/10 04:19:44;;;;;;;11.97;4.40;;;;;;;42.05;37.39;100773.59;5032555;28;20498;-84
2023/05/10 04:22:10;;;;;;;9.70;3.27;;;;;;;42.00;36.99;100776.53;5030761;28;20200;-84
2023/05/10 04:24:36;;;;;;;10.30;3.57;;;;;;;41.81;37.14;100784.41;5031343;28;20687;-84
2023/05/10 04:27:02;;;;;;;10.80;4.90;;;;;;;41.97;36.86;100788.06;5030498;28;20184;-84
2023/05/10 04:29:28;;;;;;;12.03;3.70;;;;;;;41.79;37.09;100783.94;5030651;28;20188;-84
2023/05/10 04:31:56;;;;;;;21.97;3.07;;;;;;;41.88;36.43;100781.13;5030327;28;20440;-84
2023/05/10 04:34:22;;;;;;;11.60;5.23;;;;;;;41.71;37.26;100785.56;5030840;28;20574;-84
2023/05/10 04:36:48;;;;;;;15.93;4.27;;;;;;;41.98;36.55;100794.31;5024039;28;20436;-84
2023/05/10 04:39:14;;;;;;;9.10;3.20;;;;;;;41.93;37.20;100778.19;5030560;28;20431;-84
2023/05/10 04:41:40;;;;;;;10.00;3.00;;;;;;;41.70;37.33;100786.72;5019926;28;20455;-84
2023/05/10 04:44:06;;;;;;;9.73;3.77;;;;;;;41.77;37.26;100792.44;5030450;28;20184;-84
2023/05/10 04:46:32;;;;;;;14.70;3.83;;;;;;;41.74;37.25;100786.81;5030611;28;20238;-84
2023/05/10 04:48:58;;;;;;;13.70;4.20;;;;;;;41.72;37.43;100784.44;5031437;28;20419;-84
2023/05/10 04:51:23;;;;;;;15.97;4.37;;;;;;;41.70;37.39;100786.72;5030641;28;20416;-84
2023/05/10 04:53:49;;;;;;;8.50;3.53;;;;;;;41.86;36.99;100784.19;5030908;28;20430;-84
2023/05/10 04:56:16;;;;;;;10.43;4.63;;;;;;;41.95;37.25;100790.34;5028699;28;20569;-83
2023/05/10 04:58:42;;;;;;;12.47;4.43;;;;;;;41.86;37.13;100790.41;5030661;28;20423;-84
2023/05/10 05:01:16;;;;;;;11.43;3.57;;;;;;;41.83;36.72;100802.00;5030519;28;20958;-84
2023/05/10 05:03:42;;;;;;;11.07;4.17;;;;;;;41.76;37.55;100812.66;5030743;28;20196;-84
2023/05/10 05:06:08;;;;;;;11.00;3.43;;;;;;;41.95;36.95;100801.25;5029676;28;20493;-84
2023/05/10 05:08:34;;;;;;;14.50;3.80;;;;;;;41.99;36.68;100813.09;5030738;28;20427;-84
2023/05/10 05:11:00;;;;;;;14.50;3.67;;;;;;;41.92;36.81;100807.34;5030537;28;20923;-84
2023/05/10 05:13:26;;;;;;;11.53;3.40;;;;;;;41.98;36.72;100802.50;5030574;28;20265;-84
2023/05/10 05:15:52;;;;;;;10.70;2.93;;;;;;;41.84;37.02;100810.97;5029584;28;20423;-84
2023/05/10 05:18:18;;;;;;;10.07;4.13;;;;;;;42.10;36.79;100816.94;5030827;28;20238;-84
2023/05/10 05:20:44;;;;;;;12.03;3.90;;;;;;;41.99;36.72;100815.81;5030527;28;20188;-83
2023/05/10 05:23:09;;;;;;;15.80;3.27;;;;;;;41.78;36.88;100813.09;5025039;28;20626;-82
2023/05/10 05:25:36;;;;;;;10.97;3.97;;;;;;;41.78;37.03;100823.19;5025492;28;20191;-82
2023/05/10 05:28:02;;;;;;;13.67;4.53;;;;;;;41.90;37.28;100830.63;5030478;28;20195;-82
2023/05/10 05:30:28;;;;;;;9.70;3.53;;;;;;;41.90;37.10;100830.63;5031643;28;20435;-82
2023/05/10 05:32:53;;;;;;;11.57;3.37;;;;;;;41.77;36.96;100816.97;5033787;28;20653;-82
2023/05/10 05:35:19;;;;;;;7.30;2.53;;;;;;;41.86;36.82;100814.94;5033912;28;20416;-82
2023/05/10 05:37:45;;;;;;;10.00;3.33;;;;;;;41.85;37.51;100807.09;5033915;28;20261;-82
2023/05/10 05:40:14;;;;;;;8.70;3.20;;;;;;;41.84;37.02;100802.78;5033770;28;20947;-82
2023/05/10 05:42:41;;;;;;;19.03;7.30;;;;;;;41.88;37.48;100790.09;5033465;28;20275;-82
2023/05/10 05:45:08;;;;;;;12.53;3.60;;;;;;;41.86;37.26;100814.94;5033893;28;20545;-84
2023/05/10 05:47:34;;;;;;;12.67;4.03;;;;;;;41.91;36.63;100811.22;5033901;28;20810;-82
2023/05/10 05:50:00;;;;;;;11.23;4.80;;;;;;;42.01;36.44;100815.47;5033674;28;20423;-84
2023/05/10 05:52:26;;;;;;;14.17;4.27;;;;;;;41.96;36.68;100821.13;5033596;28;20501;-83
2023/05/10 05:54:52;;;;;;;11.17;4.47;;;;;;;42.16;36.38;100814.84;5033369;28;20276;-82
2023/05/10 05:57:18;;;;;;;9.90;3.70;;;;;;;41.97;36.74;100807.16;5033735;28;20519;-82
2023/05/10 05:59:44;;;;;;;9.80;3.77;;;;;;;41.93;36.58;100808.16;5033254;28;20478;-83
2023/05/10 06:02:10;;;;;;;9.87;3.73;;;;;;;42.08;36.53;100815.69;5033524;28;20680;-82
2023/05/10 06:04:36;;;;;;;19.03;4.77;;;;;;;42.07;36.93;100823.09;5032700;28;20439;-83
2023/05/10 06:07:02;;;;;;;19.43;3.57;;;;;;;41.97;36.53;100825.44;5033167;28;20471;-82
2023/05/10 06:09:28;;;;;;;13.40;3.70;;;;;;;41.92;37.12;100825.63;5032620;28;20269;-84
2023/05/10 06:11:53;;;;;;;15.33;4.00;;;;;;;42.10;36.37;100835.22;5033343;28;20181;-80
2023/05/10 06:14:23;;;;;;;11.43;4.03;;;;;;;42.03;36.61;100846.69;5033363;28;20551;-83
2023/05/10 06:16:49;;;;;;;10.40;3.57;;;;;;;42.02;36.82;100844.31;5033290;28;20729;-80
2023/05/10 06:19:14;;;;;;;12.03;4.23;;;;;;;41.65;37.51;100849.56;5033367;28;20515;-81
2023/05/10 06:21:40;;;;;;;14.43;3.67;;;;;;;41.92;37.71;100845.50;5033068;28;20204;-79
2023/05/10 06:24:06;;;;;;;12.67;4.90;;;;;;;42.08;36.85;100849.19;5031831;28;20181;-81
2023/05/10 06:26:33;;;;;;;19.33;7.30;;;;;;;41.80;37.02;100861.78;5032968;28;20173;-81
2023/05/10 06:28:59;;;;;;;12.90;3.80;;;;;;;41.71;37.42;100864.56;5032329;28;20422;-79
2023/05/10 06:31:25;;;;;;;18.13;5.83;;;;;;;41.99;36.75;100853.13;5033168;28;20447;-80
2023/05/10 06:33:51;;;;;;;13.67;6.00;;;;;;;42.00;36.94;100860.19;5032708;28;20462;-79
2023/05/10 06:36:17;;;;;;;15.73;5.40;;;;;;;41.75;37.04;100868.25;5033061;28;20507;-81
2023/05/10 06:38:43;;;;;;;18.30;5.30;;;;;;;41.81;36.95;100866.94;5032294;28;20563;-78
2023/05/10 06:41:09;;;;;;;25.40;5.27;;;;;;;41.89;36.69;100886.25;5026698;28;20793;-81
2023/05/10 06:43:35;;;;;;;14.70;7.13;;;;;;;42.12;36.91;100890.22;5021478;28;20865;-78
2023/05/10 06:46:01;;;;;;;17.93;4.73;;;;;;;41.96;37.41;100886.50;5032335;28;20185;-79
2023/05/10 06:48:27;;;;;;;10.50;4.60;;;;;;;42.13;36.73;100894.53;5032644;28;20807;-80
2023/05/10 06:50:53;;;;;;;10.80;4.10;;;;;;;42.05;36.64;100900.84;5032522;28;20515;-82
2023/05/10 06:53:19;;;;;;;21.63;7.10;;;;;;;42.20;36.43;100910.38;5032761;28;20498;-82
2023/05/10 06:55:45;;;;;;;19.30;5.37;;;;;;;42.23;37.02;100902.31;5032938;28;20507;-85
2023/05/10 06:58:11;;;;;;;22.57;6.33;;;;;;;42.09;37.06;100905.31;5030954;28;20423;-85
2023/05/10 07:00:40;;;;;;;13.37;4.70;;;;;;;42.22;36.66;100908.91;5032007;28;20424;-85
2023/05/10 07:03:06;;;;;;;11.43;4.17;;;;;;;42.21;36.44;100918.22;5032364;28;20696;-85
2023/05/10 07:05:32;;;;;;;15.43;4.30;;;;;;;42.04;36.61;100931.97;5032267;28;20955;-84
2023/05/10 07:07:58;;;;;;;13.50;4.67;;;;;;;42.16;36.64;100915.69;5030330;28;20471;-85
2023/05/10 07:10:24;;;;;;;11.70;6.20;;;;;;;42.07;37.09;100929.38;5030290;28;20291;-84
2023/05/10 07:12:50;;;;;;;12.00;4.17;;;;;;;42.13;36.17;100919.06;5030399;28;20474;-84
2023/05/10 07:15:16;;;;;;;14.60;5.77;;;;;;;42.31;36.10;100933.38;5030137;28;20419;-86
2023/05/10 07:17:42;;;;;;;16.73;4.90;;;;;;;42.26;36.88;100926.19;5030251;28;20204;-85
2023/05/10 07:20:08;;;;;;;15.70;5.17;;;;;;;42.49;36.92;100926.63;5030525;28;20481;-84
2023/05/10 07:22:34;;;;;;;13.80;6.43;;;;;;;42.40;36.62;100937.59;5031354;28;20311;-85
2023/05/10 07:25:00;;;;;;;17.10;6.93;;;;;;;42.51;36.75;100951.63;5032066;28;20522;-83
2023/05/10 07:27:26;;;;;;;15.17;6.43;;;;;;;42.47;35.84;100947.16;5032077;28;20208;-82
2023/05/10 07:29:52;;;;;;;14.30;4.03;;;;;;;42.53;36.21;100948.53;5031550;28;20419;-85
2023/05/10 07:32:18;;;;;;;11.30;4.83;;;;;;;42.51;35.80;100953.53;5032009;28;20569;-81
2023/05/10 07:34:44;;;;;;;10.40;5.20;;;;;;;42.24;36.28;100963.09;5031281;28;20262;-82
2023/05/10 07:37:10;;;;;;;20.03;4.93;;;;;;;42.36;36.29;100958.50;5031472;28;20613;-82
2023/05/10 07:39:36;;;;;;;14.13;6.73;;;;;;;42.34;35.97;100958.03;5031308;28;20215;-83
2023/05/10 07:42:02;;;;;;;17.97;6.83;;;;;;;42.30;36.18;100964.50;5031754;28;20201;-82
2023/05/10 07:44:29;;;;;;;8.87;4.73;;;;;;;42.16;36.56;100970.22;5033008;28;20419;-83
2023/05/10 07:46:55;;;;;;;17.07;4.93;;;;;;;42.22;36.30;100968.06;5031271;28;20416;-84
2023/05/10 07:49:24;;;;;;;16.40;4.83;;;;;;;42.42;36.30;100977.34;5031584;28;20505;-91
2023/05/10 07:51:50;;;;;;;18.00;4.30;;;;;;;42.63;36.50;100975.44;5031032;28;20427;-85
2023/05/10 07:54:16;;;;;;;10.80;3.60;;;;;;;42.66;36.17;100972.00;5031440;28;20526;-82
2023/05/10 07:56:46;;;;;;;10.50;4.00;;;;;;;42.56;36.12;100975.16;5031471;28;20427;-82
2023/05/10 07:59:16;;;;;;;11.30;4.40;;;;;;;42.74;36.14;100981.28;5031816;28;20420;-82
2023/05/10 08:01:43;;;;;;;12.10;3.67;;;;;;;42.78;35.63;100982.97;5032457;28;20459;-82
2023/05/10 08:04:09;;;;;;;18.23;5.23;;;;;;;42.65;36.02;100976.69;5031430;28;20481;-83
2023/05/10 08:06:35;;;;;;;20.13;4.33;;;;;;;42.88;36.01;100979.00;5030990;28;20471;-83
2023/05/10 08:09:01;;;;;;;11.67;4.63;;;;;;;42.63;35.83;100975.44;5030914;28;20947;-82
2023/05/10 08:11:30;;;;;;;11.20;3.03;;;;;;;42.60;35.61;100982.38;5031015;28;20992;-81
2023/05/10 08:13:56;;;;;;;14.33;4.80;;;;;;;42.67;35.51;100989.22;5032190;28;20197;-82
2023/05/10 08:16:21;;;;;;;9.07;3.20;;;;;;;42.61;35.82;100996.81;5031404;28;20420;-82
2023/05/10 08:18:48;;;;;;;14.23;4.90;;;;;;;42.59;35.58;100988.13;5030309;28;20253;-83
2023/05/10 08:21:15;;;;;;;11.80;3.87;;;;;;;42.60;36.12;100990.56;5031144;28;20220;-82
2023/05/10 08:23:43;;;;;;;15.97;3.33;;;;;;;42.50;35.88;100993.66;5030922;28;20433;-82
2023/05/10 08:26:09;;;;;;;9.87;3.80;;;;;;;42.70;35.91;100983.84;5030910;28;20419;-82
2023/05/10 08:28:35;;;;;;;14.60;3.80;;;;;;;42.78;36.39;100999.31;5030805;28;20423;-82
2023/05/10 08:31:01;;;;;;;12.30;3.83;;;;;;;42.81;35.94;101000.59;5031077;28;20530;-82
2023/05/10 08:33:27;;;;;;;13.73;3.97;;;;;;;42.69;35.92;100985.00;5030142;28;20180;-82
2023/05/10 08:35:52;;;;;;;9.67;3.60;;;;;;;42.76;36.01;100987.16;5024195;28;20632;-82
2023/05/10 08:38:18;;;;;;;15.43;3.50;;;;;;;43.02;35.36;100987.69;5030360;28;20276;-82
2023/05/10 08:40:45;;;;;;;20.23;3.33;;;;;;;43.09;35.89;100998.06;5027781;28;20181;-82
2023/05/10 08:43:15;;;;;;;7.80;3.40;;;;;;;43.04;35.40;101003.75;5030763;28;20463;-83
2023/05/10 08:45:43;;;;;;;11.67;4.60;;;;;;;43.01;35.25;101004.44;5030699;28;20478;-82
2023/05/10 08:48:10;;;;;;;11.30;3.90;;;;;;;42.99;35.66;100991.13;5030617;28;20440;-83
2023/05/10 08:50:38;;;;;;;9.03;4.20;;;;;;;42.84;35.74;101006.16;5030732;28;20426;-82
2023/05/10 08:53:09;;;;;;;11.03;4.80;;;;;;;42.96;35.20;100986.31;5030451;28;20499;-82
2023/05/10 08:55:38;;;;;;;8.50;3.80;;;;;;;43.09;35.17;100998.06;5030803;28;20431;-85
2023/05/10 08:58:04;;;;;;;11.00;4.27;;;;;;;43.02;35.73;101003.28;5031801;28;20453;-83
2023/05/10 09:00:31;;;;;;;19.37;4.43;;;;;;;43.03;35.45;101002.97;5030881;28;20422;-83
2023/05/10 09:03:00;;;;;;;7.53;2.87;;;;;;;43.10;35.18;100996.94;5030248;28;20541;-82
2023/05/10 09:05:26;;;;;;;9.57;3.00;;;;;;;42.80;35.23;100994.34;5025173;28;20519;-82
2023/05/10 09:07:53;;;;;;;14.10;4.90;;;;;;;42.97;35.23;100995.28;5031082;28;20558;-84
2023/05/10 09:10:19;;;;;;;8.40;3.50;;;;;;;42.74;35.19;100992.19;5034717;28;20502;-84
2023/05/10 09:12:48;;;;;;;11.90;3.00;;;;;;;42.82;35.34;100988.56;5034772;28;20875;-83
2023/05/10 09:15:19;;;;;;;11.00;3.40;;;;;;;43.03;34.61;100983.88;5034554;28;20423;-84
2023/05/10 09:17:46;;;;;;;9.40;3.50;;;;;;;42.96;34.79;100989.03;5034111;28;20513;-84
2023/05/10 09:20:12;;;;;;;12.13;4.17;;;;;;;42.81;35.34;100995.94;5033872;28;20936;-83
2023/05/10 09:22:38;;;;;;;15.47;4.97;;;;;;;43.10;35.19;101008.66;5033585;28;20462;-83
2023/05/10 09:25:08;;;;;;;13.50;4.20;;;;;;;43.01;35.02;101009.88;5034776;28;20505;-82
2023/05/10 09:27:35;;;;;;;11.53;4.87;;;;;;;43.15;34.97;101004.88;5034369;28;20180;-82
2023/05/10 09:30:02;;;;;;;9.60;3.20;;;;;;;43.16;35.27;101001.06;5034360;28;20411;-82
2023/05/10 09:32:42;;;;;;;9.10;2.93;;;;;;;43.24;35.31;101008.34;5033840;28;20489;-83
2023/05/10 09:35:08;;;;;;;13.33;4.30;;;;;;;43.19;35.41;100997.63;5033959;28;20577;-83
2023/05/10 09:37:34;;;;;;;18.27;4.90;;;;;;;43.06;35.51;100979.66;5034097;28;20431;-84
2023/05/10 09:40:04;;;;;;;17.27;3.80;;;;;;;43.12;35.20;100989.22;5035583;28;20434;-87
2023/05/10 09:42:29;;;;;;;10.37;4.57;;;;;;;43.14;35.50;100979.53;5033482;28;20832;-82
2023/05/10 09:45:09;;;;;;;12.43;3.70;;;;;;;43.11;35.42;100988.41;5033818;28;20427;-83
2023/05/10 09:47:36;;;;;;;15.77;5.10;;;;;;;43.23;35.57;100986.84;5028135;28;20483;-83
2023/05/10 09:50:04;;;;;;;11.13;4.30;;;;;;;43.08;35.21;100961.78;5034858;28;20485;-82
2023/05/10 09:52:48;;;;;;;12.10;3.60;;;;;;;43.24;35.40;100985.69;5034037;28;20443;-82
2023/05/10 09:55:15;;;;;;;14.10;3.23;;;;;;;43.15;35.55;100975.66;5033520;28;20442;-81
2023/05/10 09:57:41;;;;;;;20.80;4.60;;;;;;;43.10;35.74;100969.66;5033582;28;20430;-82
2023/05/10 10:00:09;;;;;;;9.20;3.73;;;;;;;43.08;35.97;100977.38;5033779;28;20560;-82
2023/05/10 10:02:36;;;;;;;15.70;3.13;;;;;;;42.98;35.86;100972.34;5034162;28;20471;-84
2023/05/10 10:05:03;;;;;;;12.13;4.20;;;;;;;42.76;34.69;100971.59;5034782;28;20457;-86
2023/05/10 10:07:29;;;;;;;14.63;4.10;;;;;;;42.92;35.60;100972.56;5032648;28;20524;-83
2023/05/10 10:09:55;;;;;;;11.60;4.43;;;;;;;42.86;35.81;100976.63;5033619;28;20439;-82
2023/05/10 10:12:21;;;;;;;12.40;4.10;;;;;;;43.13;35.56;100974.41;5033579;28;20420;-81
2023/05/10 10:14:49;;;;;;;7.63;2.90;;;;;;;42.86;35.86;100964.91;5033345;28;20454;-82
2023/05/10 10:17:15;;;;;;;10.27;3.40;;;;;;;42.63;35.85;100965.31;5032392;28;20471;-83
2023/05/10 10:19:41;;;;;;;11.80;3.80;;;;;;;42.78;35.16;100969.31;5033765;28;20441;-82
2023/05/10 10:22:07;;;;;;;13.20;4.53;;;;;;;42.99;35.03;100958.38;5032716;28;20448;-81
2023/05/10 10:24:33;;;;;;;12.30;4.23;;;;;;;42.85;35.33;100969.59;5034556;28;20438;-81
2023/05/10 10:27:09;;;;;;;12.63;2.93;;;;;;;43.11;34.93;100955.66;5033153;28;20439;-84
2023/05/10 10:29:39;;;;;;;12.93;3.97;;;;;;;43.04;35.42;100965.56;5033192;28;20803;-83
2023/05/10 10:32:46;;;;;;;11.73;2.83;;;;;;;43.13;35.56;100958.03;5032860;28;20451;-84
2023/05/10 10:35:12;;;;;;;14.37;5.20;;;;;;;43.12;35.40;100946.31;4988645;28;21038;-83
2023/05/10 10:37:47;;;;;;;8.77;2.90;;;;;;;43.06;35.17;100964.06;5029555;28;20515;-81
2023/05/10 10:40:30;;;;;;;10.77;3.33;;;;;;;42.98;34.79;100947.78;5033141;28;20423;-81
2023/05/10 10:42:57;;;;;;;11.17;3.20;;;;;;;42.95;35.06;100951.16;5029200;28;20485;-81
2023/05/10 10:45:24;;;;;;;8.60;3.23;;;;;;;43.01;34.59;100955.28;5032926;28;20419;-81
2023/05/10 10:48:22;;;;;;;10.47;2.93;;;;;;;42.93;35.02;100956.97;5033527;28;20424;-81
2023/05/10 10:50:55;;;;;;;14.40;4.00;;;;;;;43.01;34.76;100939.72;5022888;28;20502;-82
2023/05/10 10:53:21;;;;;;;8.67;3.23;;;;;;;43.02;35.22;100937.78;5032720;28;20442;-81
2023/05/10 10:55:48;;;;;;;13.43;4.53;;;;;;;43.03;35.47;100942.09;5032324;28;20952;-81
2023/05/10 10:58:33;;;;;;;16.30;3.67;;;;;;;43.39;34.85;100933.94;5032483;28;20181;-81
2023/05/10 11:01:13;;;;;;;13.10;4.30;;;;;;;43.36;34.74;100951.00;5031903;28;20450;-81
2023/05/10 11:03:40;;;;;;;10.73;4.20;;;;;;;43.44;34.85;100941.91;5022361;28;20424;-83
2023/05/10 11:06:07;;;;;;;11.87;6.30;;;;;;;43.51;34.77;100940.53;5032279;28;20940;-81
2023/05/10 11:08:42;;;;;;;9.97;3.87;;;;;;;43.48;35.01;100941.22;5027236;28;20472;-81
2023/05/10 11:11:08;;;;;;;17.23;3.50;;;;;;;43.32;34.26;100932.91;5032138;28;20477;-81
2023/05/10 11:13:38;;;;;;;17.17;3.90;;;;;;;43.44;34.22;100936.44;5032102;28;20851;-81
2023/05/10 11:16:24;;;;;;;11.10;3.70;;;;;;;43.52;34.33;100937.44;5033454;28;20427;-83
2023/05/10 11:19:04;;;;;;;10.13;3.73;;;;;;;43.61;34.18;100938.13;5033472;28;20423;-82
2023/05/10 11:21:32;;;;;;;11.00;4.00;;;;;;;43.33;34.33;100932.53;5016025;28;20463;-82
2023/05/10 11:23:59;;;;;;;9.87;4.10;;;;;;;43.56;33.98;100943.03;5032154;28;20454;-83